createdAt,value
2019-02-12T00:00:51.071Z,0.42
2019-02-12T00:03:20.181Z,0.52
2019-02-12T00:05:49.286Z,0.71
2019-02-12T00:08:18.402Z,0.65
2019-02-12T00:10:47.487Z,0.67
2019-02-12T00:13:16.585Z,0.71
2019-02-12T00:15:45.678Z,0.79
2019-02-12T00:18:14.810Z,0.84
2019-02-12T00:20:43.888Z,0.90
2019-02-12T00:23:12.996Z,0.87
2019-02-12T00:25:42.084Z,0.84
2019-02-12T00:28:11.193Z,0.85
2019-02-12T00:30:40.280Z,0.93
2019-02-12T00:33:09.382Z,0.87
2019-02-12T00:35:38.467Z,0.82
2019-02-12T00:38:07.567Z,0.74
2019-02-12T00:40:36.664Z,0.74
2019-02-12T00:43:05.758Z,0.75
2019-02-12T00:45:34.841Z,0.64
2019-02-12T00:48:03.946Z,0.60
2019-02-12T00:50:33.044Z,0.59
2019-02-12T00:53:02.148Z,0.46
2019-02-12T00:55:31.232Z,0.34
2019-02-12T00:58:00.330Z,0.31
2019-02-12T01:00:29.414Z,0.30
2019-02-12T01:02:58.525Z,0.37
2019-02-12T01:05:27.638Z,0.39
2019-02-12T01:07:56.723Z,0.30
2019-02-12T01:10:25.833Z,0.28
2019-02-12T01:12:54.920Z,0.10
2019-02-12T01:15:24.032Z,0.08
2019-02-12T01:17:53.108Z,0.10
2019-02-12T01:20:22.212Z,0.01
2019-02-12T01:22:51.297Z,-0.09
2019-02-12T01:25:20.413Z,0.03
2019-02-12T01:27:49.504Z,0.06
2019-02-12T01:30:18.611Z,0.12
2019-02-12T01:32:47.700Z,0.13
2019-02-12T01:35:16.809Z,0.08
2019-02-12T01:37:45.887Z,0.21
2019-02-12T01:40:15.189Z,0.26
2019-02-12T01:42:44.284Z,0.36
2019-02-12T01:45:13.875Z,0.17
2019-02-12T01:47:42.969Z,0.03
2019-02-12T01:50:13.698Z,0.07
2019-02-12T01:52:42.801Z,0.04
2019-02-12T01:55:11.911Z,0.09
2019-02-12T01:57:40.988Z,0.11
2019-02-12T02:00:14.604Z,0.10
2019-02-12T02:02:43.887Z,0.13
2019-02-12T02:05:13.015Z,0.18
2019-02-12T02:07:42.098Z,0.23
2019-02-12T02:10:16.458Z,0.14
2019-02-12T02:12:45.545Z,0.37
2019-02-12T02:15:14.847Z,0.55
2019-02-12T02:17:43.943Z,0.63
2019-02-12T02:20:13.621Z,0.69
2019-02-12T02:22:42.719Z,0.65
2019-02-12T02:25:11.912Z,0.69
2019-02-12T02:27:40.981Z,0.50
2019-02-12T02:30:11.354Z,0.33
2019-02-12T02:32:40.433Z,0.32
2019-02-12T02:35:09.559Z,0.40
2019-02-12T02:37:38.674Z,0.36
2019-02-12T02:40:08.410Z,0.08
2019-02-12T02:42:37.496Z,0.11
2019-02-12T02:45:06.797Z,0.02
2019-02-12T02:47:35.915Z,-0.02
2019-02-12T02:50:05.279Z,-0.12
2019-02-12T02:52:34.386Z,0.02
2019-02-12T02:55:03.486Z,-0.12
2019-02-12T02:57:32.634Z,-0.04
2019-02-12T03:00:01.686Z,-0.18
2019-02-12T03:02:30.804Z,-0.17
2019-02-12T03:04:59.923Z,-0.12
2019-02-12T03:07:29.028Z,-0.08
2019-02-12T03:09:58.112Z,-0.02
2019-02-12T03:12:27.225Z,-0.10
2019-02-12T03:14:56.349Z,-0.14
2019-02-12T03:17:25.422Z,-0.26
2019-02-12T03:19:54.503Z,-0.36
2019-02-12T03:22:23.609Z,-0.14
2019-02-12T03:24:52.702Z,-0.18
2019-02-12T03:27:22.310Z,-0.24
2019-02-12T03:29:51.396Z,-0.32
2019-02-12T03:32:20.639Z,-0.29
2019-02-12T03:34:49.785Z,-0.13
2019-02-12T03:37:18.890Z,-0.20
2019-02-12T03:39:47.986Z,-0.16
2019-02-12T03:42:17.091Z,-0.23
2019-02-12T03:44:46.181Z,-0.25
2019-02-12T03:47:15.291Z,-0.20
2019-02-12T03:49:44.378Z,-0.29
2019-02-12T03:52:13.478Z,-0.28
2019-02-12T03:54:42.666Z,-0.23
2019-02-12T03:57:11.772Z,-0.26
2019-02-12T03:59:40.864Z,-0.29
2019-02-12T04:02:09.974Z,-0.27
2019-02-12T04:04:39.093Z,-0.21
2019-02-12T04:07:08.211Z,-0.27
2019-02-12T04:09:37.295Z,-0.26
2019-02-12T04:12:06.404Z,-0.12
2019-02-12T04:14:35.494Z,-0.07
2019-02-12T04:17:04.609Z,-0.10
2019-02-12T04:19:33.702Z,-0.04
2019-02-12T04:22:02.816Z,-0.04
2019-02-12T04:24:31.908Z,-0.14
2019-02-12T04:27:01.023Z,-0.12
2019-02-12T04:29:30.111Z,-0.12
2019-02-12T04:31:59.218Z,-0.19
2019-02-12T04:34:28.308Z,-0.29
2019-02-12T04:36:57.412Z,-0.25
2019-02-12T04:39:26.498Z,-0.30
2019-02-12T04:41:55.611Z,-0.42
2019-02-12T04:44:24.701Z,-0.50
2019-02-12T04:46:53.789Z,-0.57
2019-02-12T04:49:22.900Z,-0.56
2019-02-12T04:51:51.995Z,-0.62
2019-02-12T04:54:21.106Z,-0.49
2019-02-12T04:56:50.211Z,-0.41
2019-02-12T04:59:19.312Z,-0.36
2019-02-12T05:01:48.405Z,-0.35
2019-02-12T05:04:17.524Z,-0.19
2019-02-12T05:06:46.632Z,-0.10
2019-02-12T05:09:18.068Z,-0.12
2019-02-12T05:11:52.805Z,-0.07
2019-02-12T05:14:21.950Z,-0.09
2019-02-12T05:16:51.031Z,0.01
2019-02-12T05:19:20.131Z,0.06
2019-02-12T05:21:49.212Z,0.23
2019-02-12T05:24:18.323Z,0.28
2019-02-12T05:26:47.417Z,0.30
2019-02-12T05:29:18.298Z,0.31
2019-02-12T05:31:47.411Z,0.49
2019-02-12T05:34:16.569Z,0.40
2019-02-12T05:36:45.691Z,0.39
2019-02-12T05:39:14.792Z,0.52
2019-02-12T05:41:43.909Z,0.54
2019-02-12T05:44:12.981Z,0.46
2019-02-12T05:46:42.070Z,0.37
2019-02-12T05:49:11.146Z,0.29
2019-02-12T05:51:40.250Z,0.30
2019-02-12T05:54:09.337Z,0.32
2019-02-12T05:56:38.456Z,0.17
2019-02-12T05:59:07.535Z,0.09
2019-02-12T06:01:36.640Z,0.17
2019-02-12T06:04:05.731Z,0.11
2019-02-12T06:06:34.852Z,0.10
2019-02-12T06:09:04.754Z,0.08
2019-02-12T06:11:33.859Z,0.03
2019-02-12T06:14:02.976Z,-0.02
2019-02-12T06:16:32.063Z,0.03
2019-02-12T06:19:01.144Z,0.13
2019-02-12T06:21:30.239Z,0.16
2019-02-12T06:23:59.323Z,0.18
2019-02-12T06:26:28.430Z,0.16
2019-02-12T06:28:57.512Z,0.16
2019-02-12T06:31:26.605Z,0.29
2019-02-12T06:33:55.698Z,0.13
2019-02-12T06:36:24.805Z,0.09
2019-02-12T06:38:53.903Z,-0.06
2019-02-12T06:41:22.992Z,-0.08
2019-02-12T06:43:52.155Z,-0.20
2019-02-12T06:46:21.198Z,-0.18
2019-02-12T06:48:50.318Z,-0.28
2019-02-12T06:51:19.404Z,-0.14
2019-02-12T06:53:48.515Z,-0.27
2019-02-12T06:56:17.596Z,-0.27
2019-02-12T06:58:46.784Z,-0.20
2019-02-12T07:01:15.866Z,0.04
2019-02-12T07:03:56.922Z,-0.12
2019-02-12T07:06:59.308Z,-0.14
2019-02-12T07:09:36.091Z,0.03
2019-02-12T07:12:41.532Z,-0.03
2019-02-12T07:15:20.711Z,-0.03
2019-02-12T07:18:21.374Z,0.11
2019-02-12T07:21:05.828Z,0.11
2019-02-12T07:24:07.964Z,0.19
2019-02-12T07:26:55.618Z,0.25
2019-02-12T07:30:11.393Z,0.37
2019-02-12T07:33:00.388Z,0.46
2019-02-12T07:35:53.585Z,0.42
2019-02-12T07:39:08.398Z,0.50
2019-02-12T07:42:00.442Z,0.67
2019-02-12T07:45:08.755Z,0.88
2019-02-12T07:48:17.044Z,0.89
2019-02-12T07:51:00.962Z,1.00
2019-02-12T07:53:53.975Z,1.10
2019-02-12T07:57:05.723Z,1.19
2019-02-12T08:00:14.775Z,1.28
2019-02-12T08:03:39.933Z,1.48
2019-02-12T08:06:30.909Z,1.67
2019-02-12T08:09:35.244Z,1.80
2019-02-12T08:12:29.427Z,1.99
2019-02-12T08:15:07.530Z,2.00
2019-02-12T08:18:00.587Z,1.95
2019-02-12T08:21:07.996Z,1.95
2019-02-12T08:24:19.117Z,1.92
2019-02-12T08:27:10.146Z,1.83
2019-02-12T08:30:06.926Z,1.86
2019-02-12T08:33:15.466Z,1.61
2019-02-12T08:36:07.610Z,1.65
2019-02-12T08:39:17.139Z,1.68
2019-02-12T08:42:28.756Z,1.60
2019-02-12T08:45:43.648Z,1.56
2019-02-12T08:48:51.467Z,1.52
2019-02-12T08:51:59.857Z,1.56
2019-02-12T08:55:01.093Z,1.72
2019-02-12T08:57:52.541Z,1.84
2019-02-12T09:01:08.570Z,2.01
2019-02-12T09:04:21.858Z,2.00
2019-02-12T09:07:12.101Z,2.05
2019-02-12T09:10:14.628Z,2.10
2019-02-12T09:13:23.129Z,1.92
2019-02-12T09:16:36.149Z,2.08
2019-02-12T09:19:29.437Z,2.14
2019-02-12T09:22:40.736Z,2.16
2019-02-12T09:25:37.747Z,2.29
2019-02-12T09:28:24.029Z,2.53
2019-02-12T09:31:34.999Z,2.25
2019-02-12T09:34:29.737Z,2.28
2019-02-12T09:37:34.317Z,2.42
2019-02-12T09:40:19.542Z,3.19
2019-02-12T09:43:23.095Z,3.83
2019-02-12T09:46:33.367Z,4.08
2019-02-12T09:49:53.255Z,4.37
2019-02-12T09:52:52.796Z,3.23
2019-02-12T09:56:02.605Z,3.24
2019-02-12T09:59:24.571Z,3.28
2019-02-12T10:02:25.659Z,3.70
2019-02-12T10:05:22.782Z,4.49
2019-02-12T10:08:38.401Z,3.65
2019-02-12T10:11:42.737Z,3.63
2019-02-12T10:14:36.368Z,3.76
2019-02-12T10:17:39.643Z,4.21
2019-02-12T10:20:49.035Z,3.88
2019-02-12T10:23:59.067Z,3.58
2019-02-12T10:26:28.231Z,3.42
2019-02-12T10:29:39.976Z,3.39
2019-02-12T10:32:09.031Z,3.46
2019-02-12T10:34:38.184Z,3.51
2019-02-12T10:37:07.265Z,3.60
2019-02-12T10:39:36.368Z,3.54
2019-02-12T10:42:05.442Z,3.92
2019-02-12T10:44:34.590Z,4.03
2019-02-12T10:47:03.675Z,3.55
2019-02-12T10:49:32.776Z,3.43
2019-02-12T10:52:01.856Z,3.51
2019-02-12T10:54:30.957Z,3.89
2019-02-12T10:57:00.043Z,3.81
2019-02-12T10:59:29.172Z,3.81
2019-02-12T11:01:58.249Z,3.50
2019-02-12T11:04:27.404Z,3.50
2019-02-12T11:06:56.499Z,3.47
2019-02-12T11:09:25.604Z,3.36
2019-02-12T11:11:54.675Z,3.67
2019-02-12T11:14:23.754Z,3.91
2019-02-12T11:16:52.858Z,4.03
2019-02-12T11:19:21.936Z,4.31
2019-02-12T11:21:51.045Z,4.01
2019-02-12T11:24:20.123Z,3.64
2019-02-12T11:26:49.223Z,3.66
2019-02-12T11:29:18.298Z,4.07
2019-02-12T11:31:47.396Z,4.00
2019-02-12T11:34:16.465Z,4.59
2019-02-12T11:36:45.558Z,4.30
2019-02-12T11:39:14.633Z,4.71
2019-02-12T11:41:43.738Z,4.49
2019-02-12T11:44:12.806Z,4.61
2019-02-12T11:46:41.911Z,4.76
2019-02-12T11:49:10.985Z,4.63
2019-02-12T11:51:40.087Z,4.85
2019-02-12T11:54:09.171Z,4.79
2019-02-12T11:56:38.280Z,4.93
2019-02-12T11:59:07.370Z,5.48
2019-02-12T12:01:36.474Z,5.40
2019-02-12T12:04:05.556Z,5.73
2019-02-12T12:06:34.661Z,5.69
2019-02-12T12:09:05.164Z,5.77
2019-02-12T12:11:34.320Z,5.36
2019-02-12T12:14:03.577Z,5.01
2019-02-12T12:16:32.651Z,5.09
2019-02-12T12:19:01.754Z,5.17
2019-02-12T12:21:30.840Z,5.66
2019-02-12T12:23:59.944Z,5.18
2019-02-12T12:26:29.019Z,5.03
2019-02-12T12:28:58.900Z,5.02
2019-02-12T12:31:27.982Z,4.70
2019-02-12T12:33:57.087Z,4.33
2019-02-12T12:36:26.167Z,4.80
2019-02-12T12:38:55.372Z,4.79
2019-02-12T12:41:24.450Z,4.87
2019-02-12T12:43:53.562Z,5.43
2019-02-12T12:46:22.641Z,5.52
2019-02-12T12:48:51.761Z,5.28
2019-02-12T12:51:20.846Z,5.66
2019-02-12T12:53:49.955Z,5.48
2019-02-12T12:56:19.027Z,5.39
2019-02-12T12:58:48.130Z,5.20
2019-02-12T13:01:17.205Z,5.50
2019-02-12T13:03:46.316Z,5.42
2019-02-12T13:06:15.417Z,5.79
2019-02-12T13:08:44.595Z,5.46
2019-02-12T13:11:13.695Z,5.19
2019-02-12T13:13:42.782Z,5.33
2019-02-12T13:16:11.867Z,5.69
2019-02-12T13:18:40.945Z,5.67
2019-02-12T13:21:10.131Z,5.52
2019-02-12T13:23:39.207Z,5.34
2019-02-12T13:26:08.311Z,5.43
2019-02-12T13:28:37.406Z,6.10
2019-02-12T13:31:06.506Z,6.58
2019-02-12T13:33:35.588Z,6.10
2019-02-12T13:36:05.064Z,5.44
2019-02-12T13:38:34.167Z,5.06
2019-02-12T13:41:03.257Z,5.11
2019-02-12T13:43:32.366Z,5.21
2019-02-12T13:46:01.453Z,5.21
2019-02-12T13:48:30.640Z,5.22
2019-02-12T13:50:59.720Z,5.18
2019-02-12T13:53:28.820Z,5.15
2019-02-12T13:55:57.894Z,5.50
2019-02-12T13:58:26.984Z,5.38
2019-02-12T14:00:56.054Z,5.67
2019-02-12T14:03:25.170Z,5.37
2019-02-12T14:05:54.351Z,5.65
2019-02-12T14:08:23.466Z,5.38
2019-02-12T14:10:52.541Z,5.36
2019-02-12T14:13:21.651Z,5.34
2019-02-12T14:15:50.727Z,6.19
2019-02-12T14:18:19.828Z,6.87
2019-02-12T14:20:48.912Z,7.38
2019-02-12T14:23:18.009Z,7.10
2019-02-12T14:25:47.102Z,8.14
2019-02-12T14:28:16.194Z,8.88
2019-02-12T14:30:45.293Z,7.59
2019-02-12T14:33:14.480Z,7.42
2019-02-12T14:35:43.586Z,6.88
2019-02-12T14:38:12.658Z,6.59
2019-02-12T14:40:41.768Z,6.48
2019-02-12T14:43:14.009Z,5.71
2019-02-12T14:45:41.677Z,5.57
2019-02-12T14:48:10.767Z,5.68
2019-02-12T14:50:58.895Z,5.35
2019-02-12T14:53:27.981Z,5.24
2019-02-12T14:55:57.063Z,5.38
2019-02-12T14:58:26.170Z,5.54
2019-02-12T15:00:55.255Z,5.45
2019-02-12T15:03:24.363Z,5.27
2019-02-12T15:05:53.438Z,5.81
2019-02-12T15:08:22.586Z,6.64
2019-02-12T15:10:51.667Z,6.96
2019-02-12T15:13:20.775Z,7.66
2019-02-12T15:15:49.849Z,8.62
2019-02-12T15:18:18.969Z,10.26
2019-02-12T15:20:48.033Z,9.69
2019-02-12T15:23:17.134Z,9.21
2019-02-12T15:25:46.219Z,9.15
2019-02-12T15:28:15.351Z,9.31
2019-02-12T15:30:44.425Z,9.31
2019-02-12T15:33:13.526Z,9.22
2019-02-12T15:35:42.604Z,9.83
2019-02-12T15:38:11.705Z,9.66
2019-02-12T15:40:40.786Z,8.83
2019-02-12T15:43:09.888Z,8.39
2019-02-12T15:45:38.961Z,8.23
2019-02-12T15:48:08.070Z,7.46
2019-02-12T15:50:37.300Z,7.02
2019-02-12T15:53:06.327Z,6.32
2019-02-12T15:55:42.121Z,5.68
2019-02-12T15:58:08.036Z,5.30
2019-02-12T16:00:37.174Z,5.17
2019-02-12T16:03:06.247Z,4.70
2019-02-12T16:05:35.360Z,4.45
2019-02-12T16:08:05.632Z,4.45
2019-02-12T16:10:35.268Z,4.32
2019-02-12T16:13:04.340Z,4.32
2019-02-12T16:15:33.437Z,4.36
2019-02-12T16:18:02.620Z,4.22
2019-02-12T16:20:33.065Z,4.24
2019-02-12T16:23:02.261Z,4.09
2019-02-12T16:25:31.359Z,4.07
2019-02-12T16:28:00.453Z,4.01
2019-02-12T16:30:29.611Z,3.99
2019-02-12T16:32:58.690Z,3.86
2019-02-12T16:35:27.775Z,3.70
2019-02-12T16:37:56.878Z,3.65
2019-02-12T16:40:26.092Z,3.55
2019-02-12T16:42:55.170Z,3.54
2019-02-12T16:45:31.025Z,3.39
2019-02-12T16:48:00.312Z,3.31
2019-02-12T16:50:29.390Z,3.14
2019-02-12T16:52:58.501Z,3.07
2019-02-12T16:55:27.579Z,3.04
2019-02-12T16:57:56.685Z,2.98
2019-02-12T17:00:25.779Z,2.87
2019-02-12T17:02:54.903Z,2.79
2019-02-12T17:05:23.984Z,2.71
2019-02-12T17:07:53.077Z,2.59
2019-02-12T17:10:22.154Z,2.60
2019-02-12T17:12:51.266Z,2.43
2019-02-12T17:15:20.348Z,2.33
2019-02-12T17:17:49.452Z,2.24
2019-02-12T17:20:18.875Z,2.26
2019-02-12T17:22:48.445Z,2.27
2019-02-12T17:25:17.538Z,2.21
2019-02-12T17:27:48.031Z,2.16
2019-02-12T17:30:17.239Z,2.06
2019-02-12T17:32:46.348Z,1.96
2019-02-12T17:35:15.447Z,1.94
2019-02-12T17:37:44.539Z,1.86
2019-02-12T17:40:13.699Z,1.76
2019-02-12T17:42:42.811Z,1.70
2019-02-12T17:45:13.067Z,1.58
2019-02-12T17:47:42.175Z,1.60
2019-02-12T17:50:11.999Z,1.45
2019-02-12T17:52:41.103Z,1.33
2019-02-12T17:55:10.296Z,1.37
2019-02-12T17:57:39.412Z,1.24
2019-02-12T18:00:13.941Z,1.25
2019-02-12T18:02:43.039Z,1.26
2019-02-12T18:05:12.122Z,0.95
2019-02-12T18:07:41.231Z,0.73
2019-02-12T18:10:10.461Z,0.60
2019-02-12T18:12:39.542Z,0.54
2019-02-12T18:15:09.332Z,0.38
2019-02-12T18:17:38.422Z,0.33
2019-02-12T18:20:08.103Z,0.20
2019-02-12T18:22:37.197Z,0.27
2019-02-12T18:25:06.888Z,0.16
2019-02-12T18:27:35.968Z,0.18
2019-02-12T18:30:06.208Z,0.26
2019-02-12T18:32:35.286Z,0.13
2019-02-12T18:35:04.387Z,0.13
2019-02-12T18:37:33.476Z,-0.05
2019-02-12T18:40:02.578Z,-0.15
2019-02-12T18:42:31.659Z,-0.35
2019-02-12T18:45:00.757Z,-0.47
2019-02-12T18:47:29.838Z,-0.55
2019-02-12T18:49:58.952Z,-0.61
2019-02-12T18:52:28.035Z,-0.76
2019-02-12T18:54:57.143Z,-0.80
2019-02-12T18:57:26.233Z,-0.91
2019-02-12T18:59:55.343Z,-1.01
2019-02-12T19:02:24.922Z,-1.03
2019-02-12T19:04:54.031Z,-1.11
2019-02-12T19:07:23.117Z,-1.24
2019-02-12T19:09:52.212Z,-1.20
2019-02-12T19:12:21.307Z,-1.24
2019-02-12T19:14:50.420Z,-1.32
2019-02-12T19:17:19.506Z,-1.33
2019-02-12T19:19:48.625Z,-1.46
2019-02-12T19:22:17.708Z,-1.42
2019-02-12T19:24:46.824Z,-1.37
2019-02-12T19:27:15.907Z,-1.45
2019-02-12T19:29:45.022Z,-1.57
2019-02-12T19:32:14.180Z,-1.62
2019-02-12T19:34:43.360Z,-1.66
2019-02-12T19:37:12.465Z,-1.64
2019-02-12T19:39:41.610Z,-1.67
2019-02-12T19:42:10.683Z,-1.74
2019-02-12T19:44:39.796Z,-1.74
2019-02-12T19:47:08.885Z,-1.69
2019-02-12T19:49:38.001Z,-1.67
2019-02-12T19:52:07.082Z,-1.57
2019-02-12T19:54:36.196Z,-1.52
2019-02-12T19:57:05.450Z,-1.59
2019-02-12T19:59:34.564Z,-1.55
2019-02-12T20:02:03.648Z,-1.64
2019-02-12T20:04:32.765Z,-1.70
2019-02-12T20:07:01.852Z,-1.81
2019-02-12T20:09:30.943Z,-1.88
2019-02-12T20:12:00.052Z,-1.96
2019-02-12T20:14:29.642Z,-1.97
2019-02-12T20:16:58.758Z,-2.07
2019-02-12T20:19:27.857Z,-2.04
2019-02-12T20:21:56.984Z,-2.04
2019-02-12T20:24:26.069Z,-1.98
2019-02-12T20:26:56.063Z,-1.99
2019-02-12T20:29:25.167Z,-1.66
2019-02-12T20:31:54.305Z,-1.68
2019-02-12T20:34:23.403Z,-1.65
2019-02-12T20:36:52.513Z,-1.62
2019-02-12T20:39:21.617Z,-1.35
2019-02-12T20:41:50.740Z,-1.40
2019-02-12T20:44:19.823Z,-1.32
2019-02-12T20:46:48.936Z,-1.34
2019-02-12T20:49:18.028Z,-1.45
2019-02-12T20:51:47.144Z,-1.46
2019-02-12T20:54:16.234Z,-1.54
2019-02-12T20:56:45.349Z,-1.56
2019-02-12T20:59:14.449Z,-1.78
2019-02-12T21:01:43.574Z,-1.80
2019-02-12T21:04:12.671Z,-1.66
2019-02-12T21:06:41.978Z,-1.43
2019-02-12T21:09:11.085Z,-1.44
2019-02-12T21:11:40.203Z,-1.38
2019-02-12T21:14:09.298Z,-1.30
2019-02-12T21:16:38.453Z,-1.50
2019-02-12T21:19:07.503Z,-1.43
2019-02-12T21:21:36.610Z,-1.39
2019-02-12T21:24:05.695Z,-1.59
2019-02-12T21:26:34.792Z,-1.79
2019-02-12T21:29:03.901Z,-1.91
2019-02-12T21:31:33.014Z,-1.89
2019-02-12T21:34:02.125Z,-1.97
2019-02-12T21:36:31.211Z,-1.89
2019-02-12T21:39:00.343Z,-2.01
2019-02-12T21:41:29.438Z,-1.95
2019-02-12T21:43:58.553Z,-2.12
2019-02-12T21:46:27.647Z,-1.90
2019-02-12T21:48:56.766Z,-1.96
2019-02-12T21:51:25.858Z,-1.79
2019-02-12T21:53:54.972Z,-1.88
2019-02-12T21:56:24.070Z,-1.89
2019-02-12T21:58:53.185Z,-1.91
2019-02-12T22:01:22.279Z,-1.91
2019-02-12T22:03:51.390Z,-1.97
2019-02-12T22:06:20.480Z,-1.97
2019-02-12T22:08:49.577Z,-2.12
2019-02-12T22:11:18.690Z,-2.06
2019-02-12T22:13:47.775Z,-2.02
2019-02-12T22:16:16.895Z,-1.86
2019-02-12T22:18:45.993Z,-1.87
2019-02-12T22:21:15.113Z,-1.83
2019-02-12T22:23:44.196Z,-1.80
2019-02-12T22:26:13.306Z,-1.86
2019-02-12T22:28:42.392Z,-1.84
2019-02-12T22:31:11.532Z,-1.60
2019-02-12T22:33:40.622Z,-1.72
2019-02-12T22:36:09.737Z,-1.79
2019-02-12T22:38:38.828Z,-1.76
2019-02-12T22:41:07.944Z,-1.98
2019-02-12T22:43:37.039Z,-1.77
2019-02-12T22:46:06.153Z,-1.91
2019-02-12T22:48:35.269Z,-2.04
2019-02-12T22:51:04.385Z,-1.98
2019-02-12T22:53:33.656Z,-2.14
2019-02-12T22:56:02.720Z,-2.38
2019-02-12T22:58:32.058Z,-2.20
2019-02-12T23:01:06.966Z,-2.33
2019-02-12T23:03:36.817Z,-2.31
2019-02-12T23:06:06.045Z,-2.42
2019-02-12T23:08:35.172Z,-2.22
2019-02-12T23:11:04.469Z,-2.11
2019-02-12T23:13:33.562Z,-1.96
2019-02-12T23:16:02.681Z,-2.02
2019-02-12T23:18:31.779Z,-2.20
2019-02-12T23:21:01.245Z,-2.23
2019-02-12T23:23:30.345Z,-2.40
2019-02-12T23:25:59.436Z,-2.33
2019-02-12T23:28:28.560Z,-1.90
2019-02-12T23:30:57.681Z,-1.98
2019-02-12T23:33:26.797Z,-1.88
2019-02-12T23:35:55.895Z,-1.78
2019-02-12T23:38:25.003Z,-2.07
2019-02-12T23:40:54.102Z,-2.05
2019-02-12T23:43:23.281Z,-2.21
2019-02-12T23:45:52.385Z,-2.29
2019-02-12T23:48:21.532Z,-2.33
2019-02-12T23:50:50.621Z,-2.25
2019-02-12T23:53:19.732Z,-2.31
2019-02-12T23:55:48.826Z,-2.41
2019-02-12T23:58:17.942Z,-2.45
